Time;durP1;ratioP1;P1;durP2;ratioP2;P2;SDS_P1;SDS_P2;PMS_P1;PMS_P2;Temp;Humidity;BMP_temperature;BMP_pressure;BME280_temperature;BME280_humidity;BME280_pressure;Samples;Min_cycle;Max_cycle;Signal;HPM_P1;HPM_P2
2021/08/12 05:01:13;;;;;;;;;;;;;;;26.48;48.94;99997.66;1858245;77;20194;-70
2021/08/12 05:03:41;;;;;;;;;;;;;;;26.68;48.31;100007.22;1827845;78;20081;-71
2021/08/12 05:06:15;;;;;;;;;;;;;;;26.85;47.79;99997.91;1815700;78;21761;-70
2021/08/12 05:08:40;;;;;;;;;;;;;;;27.06;46.99;99998.95;1815120;78;20073;-66
2021/08/12 05:11:09;;;;;;;;;;;;;;;27.28;46.62;99995.19;1766061;79;20164;-70
2021/08/12 05:13:36;;;;;;;;;;;;;;;27.51;46.26;99995.77;1800633;79;20083;-69
2021/08/12 05:16:04;;;;;;;;;;;;;;;27.67;45.57;99998.65;1788059;79;20160;-69
2021/08/12 05:18:31;;;;;;;;;;;;;;;27.79;45.06;99991.72;1734629;83;22004;-64
2021/08/12 05:20:58;;;;;;;;;;;;;;;27.94;44.42;100001.48;1751946;79;20105;-66
2021/08/12 05:23:25;;;;;;;;;;;;;;;28.09;43.82;100010.16;1770546;80;20097;-64
2021/08/12 05:25:53;;;;;;;;;;;;;;;28.20;43.42;100008.25;1779894;80;20378;-67
2021/08/12 05:28:20;;;;;;;;;;;;;;;28.29;43.02;100002.25;1779289;80;20135;-64
2021/08/12 05:30:47;;;;;;;;;;;;;;;28.34;42.63;100002.47;1757895;80;21961;-66
2021/08/12 05:33:13;;;;;;;;;;;;;;;28.38;42.61;99995.68;1779590;79;20189;-65
2021/08/12 05:35:40;;;;;;;;;;;;;;;28.44;42.48;99990.83;1776347;79;20096;-65
2021/08/12 05:38:08;;;;;;;;;;;;;;;28.53;42.17;99991.78;1779714;80;20068;-65
2021/08/12 05:40:37;;;;;;;;;;;;;;;28.66;42.11;99990.98;1789062;80;20084;-70
2021/08/12 05:43:04;;;;;;;;;;;;;;;28.82;41.73;99995.13;1776263;80;21110;-68
2021/08/12 05:45:31;;;;;;;;;;;;;;;29.00;41.46;99994.02;1761132;80;20134;-66
2021/08/12 05:48:00;;;;;;;;;;;;;;;29.18;40.99;99998.25;1786278;80;20072;-65
2021/08/12 05:50:27;;;;;;;;;;;;;;;29.32;40.73;99988.30;1793728;80;20689;-66
2021/08/12 05:52:54;;;;;;;;;;;;;;;29.49;40.54;99991.41;1792246;78;20156;-67
2021/08/12 05:55:23;;;;;;;;;;;;;;;29.69;39.72;99999.39;1741536;80;20099;-71
2021/08/12 05:57:50;;;;;;;;;;;;;;;29.79;39.15;100001.95;1771214;78;20114;-65
2021/08/12 06:00:18;;;;;;;;;;;;;;;29.89;38.93;100007.39;1791610;78;20081;-74
2021/08/12 06:02:49;;;;;;;;;;;;;;;30.00;38.59;99997.34;1771314;79;20113;-68
2021/08/12 06:05:18;;;;;;;;;;;;;;;30.14;38.43;100000.28;1770859;81;20089;-71
2021/08/12 06:07:47;;;;;;;;;;;;;;;30.25;38.00;99998.27;1771757;79;20081;-68
2021/08/12 06:10:14;;;;;;;;;;;;;;;30.34;37.81;99996.98;1775444;79;20136;-70
2021/08/12 06:12:42;;;;;;;;;;;;;;;30.47;37.74;99998.23;1772120;79;20151;-71
2021/08/12 06:15:11;;;;;;;;;;;;;;;30.59;37.49;99988.17;1783261;79;20136;-65
2021/08/12 06:17:38;;;;;;;;;;;;;;;30.63;36.99;100001.48;1766320;80;20080;-71
2021/08/12 06:20:08;;;;;;;;;;;;;;;30.65;36.77;99998.88;1798734;80;20088;-68
2021/08/12 06:22:35;;;;;;;;;;;;;;;30.73;36.57;99999.14;1765639;79;20120;-71
2021/08/12 06:25:02;;;;;;;;;;;;;;;30.68;36.19;100003.00;1783157;80;20091;-70
2021/08/12 06:27:29;;;;;;;;;;;;;;;30.58;36.49;100003.99;1773398;80;20182;-73
2021/08/12 06:29:56;;;;;;;;;;;;;;;30.60;36.77;100012.14;1738156;81;20105;-69
2021/08/12 06:32:23;;;;;;;;;;;;;;;30.66;36.89;100012.63;1767612;80;21484;-68
2021/08/12 06:34:50;;;;;;;;;;;;;;;30.71;36.55;100018.70;1759275;80;20444;-71
2021/08/12 06:37:17;;;;;;;;;;;;;;;30.77;36.16;100020.00;1767006;80;20441;-71
2021/08/12 06:39:46;;;;;;;;;;;;;;;30.83;36.21;100016.92;1753894;80;20099;-80
2021/08/12 06:42:12;;;;;;;;;;;;;;;30.86;36.07;100023.22;1757247;80;20094;-75
2021/08/12 06:44:54;;;;;;;;;;;;;;;30.82;36.06;100020.14;1753261;80;22672;-67
2021/08/12 06:47:21;;;;;;;;;;;;;;;30.83;35.55;100022.30;1767875;80;20425;-74
2021/08/12 06:49:50;;;;;;;;;;;;;;;30.93;35.50;100014.58;1758930;80;20130;-66
2021/08/12 06:52:18;;;;;;;;;;;;;;;30.98;35.24;100017.44;1760655;80;20080;-72
2021/08/12 06:54:45;;;;;;;;;;;;;;;30.96;35.42;100025.42;1766807;80;20529;-78
2021/08/12 06:57:13;;;;;;;;;;;;;;;31.05;35.46;100022.77;1741900;80;22186;-73
2021/08/12 06:59:40;;;;;;;;;;;;;;;31.19;35.06;100023.00;1756772;80;20168;-69
2021/08/12 07:02:08;;;;;;;;;;;;;;;31.20;34.74;100015.72;1773345;79;20090;-74
2021/08/12 07:04:34;;;;;;;;;;;;;;;31.28;34.58;100016.27;1799845;79;20220;-72
2021/08/12 07:07:04;;;;;;;;;;;;;;;31.32;34.49;100015.31;1777936;79;20085;-72
2021/08/12 07:09:31;;;;;;;;;;;;;;;31.34;34.12;100022.64;1791101;79;22305;-72
2021/08/12 07:11:59;;;;;;;;;;;;;;;31.37;34.15;100027.05;1787696;78;20114;-73
2021/08/12 07:14:27;;;;;;;;;;;;;;;31.36;33.86;100022.72;1798898;78;20454;-70
2021/08/12 07:16:54;;;;;;;;;;;;;;;31.41;34.00;100025.57;1791428;78;20160;-68
2021/08/12 07:19:21;;;;;;;;;;;;;;;31.36;33.71;100028.62;1785118;78;20423;-67
2021/08/12 07:21:48;;;;;;;;;;;;;;;31.31;33.79;100031.16;1786624;78;21116;-64
2021/08/12 07:24:16;;;;;;;;;;;;;;;31.29;33.32;100030.55;1783522;78;20084;-64
2021/08/12 07:26:46;;;;;;;;;;;;;;;31.21;33.34;100028.13;1797251;78;20399;-73
2021/08/12 07:29:14;;;;;;;;;;;;;;;31.14;33.74;100029.56;1790457;78;20128;-64
2021/08/12 07:31:41;;;;;;;;;;;;;;;31.17;34.14;100033.16;1789031;78;20376;-65
2021/08/12 07:34:08;;;;;;;;;;;;;;;31.25;33.81;100035.55;1767234;80;21075;-73
2021/08/12 07:36:37;;;;;;;;;;;;;;;31.31;32.75;100037.36;1770354;78;20108;-64
2021/08/12 07:39:07;;;;;;;;;;;;;;;31.21;32.74;100030.30;1776827;78;20114;-65
2021/08/12 07:41:36;;;;;;;;;;;;;;;31.20;32.95;100032.69;1801584;78;20109;-69
2021/08/12 07:44:06;;;;;;;;;;;;;;;31.20;33.12;100034.55;1782831;78;20159;-64
2021/08/12 07:46:32;;;;;;;;;;;;;;;31.18;33.16;100024.05;1827135;78;21871;-62
2021/08/12 07:49:00;;;;;;;;;;;;;;;31.19;33.27;100031.07;1800411;78;20190;-79
2021/08/12 07:51:28;;;;;;;;;;;;;;;31.26;33.42;100030.98;1776268;78;20205;-64
2021/08/12 07:53:55;;;;;;;;;;;;;;;31.36;33.33;100021.38;1763280;80;20122;-65
2021/08/12 07:56:22;;;;;;;;;;;;;;;31.49;33.22;100018.56;1792212;78;20100;-66
2021/08/12 07:58:48;;;;;;;;;;;;;;;31.58;32.63;100029.86;1783468;78;21513;-63
2021/08/12 08:01:16;;;;;;;;;;;;;;;31.60;32.45;100029.09;1807225;78;20171;-69
2021/08/12 08:03:45;;;;;;;;;;;;;;;31.60;32.35;100034.47;1765265;80;20188;-64
2021/08/12 08:06:13;;;;;;;;;;;;;;;31.51;32.38;100030.45;1795626;78;20148;-63
2021/08/12 08:08:43;;;;;;;;;;;;;;;31.48;32.64;100033.06;1776298;78;20090;-63
2021/08/12 08:11:14;;;;;;;;;;;;;;;31.56;32.37;100034.64;1778288;80;20107;-66
2021/08/12 08:13:41;;;;;;;;;;;;;;;31.59;32.15;100032.83;1789199;78;20433;-65
2021/08/12 08:16:10;;;;;;;;;;;;;;;31.61;32.34;100033.95;1767212;78;20094;-64
2021/08/12 08:18:36;;;;;;;;;;;;;;;31.64;32.08;100043.75;1773079;80;20091;-64
2021/08/12 08:21:04;;;;;;;;;;;;;;;31.63;31.77;100039.41;1764080;78;20099;-66
2021/08/12 08:23:32;;;;;;;;;;;;;;;31.67;32.15;100045.17;1798322;78;20072;-64
2021/08/12 08:25:59;;;;;;;;;;;;;;;31.73;32.17;100045.66;1797031;79;20137;-66
2021/08/12 08:28:26;;;;;;;;;;;;;;;31.79;31.78;100041.56;1737823;80;20087;-65
2021/08/12 08:30:52;;;;;;;;;;;;;;;31.82;31.31;100047.84;1784541;78;20174;-63
2021/08/12 08:33:19;;;;;;;;;;;;;;;31.82;31.45;100050.54;1774163;78;20427;-69
2021/08/12 08:35:46;;;;;;;;;;;;;;;31.82;31.25;100042.46;1789200;78;21196;-64
2021/08/12 08:38:13;;;;;;;;;;;;;;;31.73;31.33;100054.56;1821806;78;20089;-64
2021/08/12 08:40:40;;;;;;;;;;;;;;;31.43;31.04;100061.69;1782929;78;20398;-63
2021/08/12 08:43:08;;;;;;;;;;;;;;;30.95;31.60;100070.31;1788912;78;20085;-63
2021/08/12 08:45:36;;;;;;;;;;;;;;;30.56;32.05;100073.22;1791022;78;20135;-64
2021/08/12 08:48:04;;;;;;;;;;;;;;;30.39;32.39;100066.20;1785791;78;21071;-63
2021/08/12 08:50:32;;;;;;;;;;;;;;;30.39;32.25;100075.60;1785864;78;20104;-63
2021/08/12 08:52:59;;;;;;;;;;;;;;;30.32;32.12;100076.97;1791425;78;20096;-64
2021/08/12 08:55:26;;;;;;;;;;;;;;;30.21;32.11;100067.41;1756764;80;20120;-66
2021/08/12 08:57:56;;;;;;;;;;;;;;;30.08;32.79;100079.02;1742067;81;20464;-72
2021/08/12 09:00:24;;;;;;;;;;;;;;;29.99;33.57;100082.96;1749912;81;21140;-75
2021/08/12 09:02:53;;;;;;;;;;;;;;;30.04;33.57;100080.47;1774615;80;20116;-76
2021/08/12 09:05:21;;;;;;;;;;;;;;;30.18;33.92;100086.11;1768960;80;20104;-79
2021/08/12 09:07:50;;;;;;;;;;;;;;;30.38;33.58;100088.73;1769797;80;20279;-79
2021/08/12 09:10:17;;;;;;;;;;;;;;;30.55;33.10;100085.02;1773138;78;20405;-81
2021/08/12 09:12:45;;;;;;;;;;;;;;;30.67;32.84;100091.40;1777414;78;21123;-77
2021/08/12 09:15:13;;;;;;;;;;;;;;;30.66;32.27;100083.03;1774211;79;20600;-71
2021/08/12 09:17:44;;;;;;;;;;;;;;;30.59;32.57;100090.30;1774397;78;20147;-76
2021/08/12 09:20:15;;;;;;;;;;;;;;;30.57;32.54;100091.03;1781698;78;20084;-73
2021/08/12 09:22:48;;;;;;;;;;;;;;;30.45;32.35;100081.44;1770818;78;20091;-74
2021/08/12 09:25:16;;;;;;;;;;;;;;;30.25;32.68;100091.47;1748931;81;20679;-69
2021/08/12 09:27:43;;;;;;;;;;;;;;;29.89;33.33;100094.13;1754045;80;20145;-66
2021/08/12 09:30:12;;;;;;;;;;;;;;;29.56;33.96;100104.10;1777728;78;20143;-63
2021/08/12 09:32:49;;;;;;;;;;;;;;;29.15;34.10;100103.24;1771882;79;20126;-65
2021/08/12 09:35:24;;;;;;;;;;;;;;;28.75;35.17;100106.86;1766412;78;20159;-76
2021/08/12 09:37:51;;;;;;;;;;;;;;;28.48;35.77;100108.09;1739449;81;21093;-75
2021/08/12 09:40:24;;;;;;;;;;;;;;;28.36;36.53;100107.55;1734734;80;20193;-68
2021/08/12 09:42:57;;;;;;;;;;;;;;;28.34;37.07;100110.42;1762867;80;20133;-69
2021/08/12 09:45:25;;;;;;;;;;;;;;;28.30;36.56;100111.84;1782177;78;20080;-67
2021/08/12 09:47:53;;;;;;;;;;;;;;;28.13;36.20;100115.83;1751131;81;20167;-75
2021/08/12 09:50:28;;;;;;;;;;;;;;;27.95;36.79;100112.87;1757441;80;20979;-75
2021/08/12 09:52:55;;;;;;;;;;;;;;;27.79;36.85;100112.65;1773294;78;21134;-67
2021/08/12 09:55:22;;;;;;;;;;;;;;;27.72;36.88;100110.44;1793961;79;20176;-73
2021/08/12 09:58:06;;;;;;;;;;;;;;;27.66;37.33;100109.36;1780698;78;20147;-73
2021/08/12 10:00:41;;;;;;;;;;;;;;;27.60;37.61;100108.80;1794419;79;20110;-65
2021/08/12 10:03:22;;;;;;;;;;;;;;;27.50;37.49;100110.47;1716918;83;21199;-76
2021/08/12 10:05:49;;;;;;;;;;;;;;;27.40;37.97;100106.47;1726535;83;20124;-67
2021/08/12 10:08:37;;;;;;;;;;;;;;;27.37;38.30;100109.52;1729429;83;20111;-68
2021/08/12 10:11:17;;;;;;;;;;;;;;;27.34;38.62;100112.07;1744013;81;20143;-73
2021/08/12 10:13:43;;;;;;;;;;;;;;;27.28;38.73;100118.19;1726236;82;20088;-71
2021/08/12 10:16:10;;;;;;;;;;;;;;;27.16;39.11;100117.89;1738757;82;21928;-72
2021/08/12 10:18:40;;;;;;;;;;;;;;;27.01;39.41;100110.95;1741347;82;20446;-70
2021/08/12 10:21:08;;;;;;;;;;;;;;;26.89;39.36;100118.59;1741666;82;20480;-69
2021/08/12 10:23:37;;;;;;;;;;;;;;;26.83;38.86;100111.34;1744010;82;20361;-69
2021/08/12 10:26:04;;;;;;;;;;;;;;;26.78;37.52;100120.45;1745522;82;20119;-70
2021/08/12 10:28:33;;;;;;;;;;;;;;;26.75;37.14;100115.48;1747256;82;21080;-70
2021/08/12 10:31:05;;;;;;;;;;;;;;;26.67;37.96;100108.91;1747090;82;20098;-70
2021/08/12 10:33:34;;;;;;;;;;;;;;;26.57;38.54;100104.70;1747435;82;20425;-67
2021/08/12 10:36:01;;;;;;;;;;;;;;;26.50;39.08;100113.12;1746593;82;20079;-69
2021/08/12 10:38:27;;;;;;;;;;;;;;;26.46;38.59;100111.84;1747574;82;20144;-65
2021/08/12 10:40:55;;;;;;;;;;;;;;;26.43;37.52;100121.56;1746374;82;21055;-64
2021/08/12 10:43:26;;;;;;;;;;;;;;;26.40;37.42;100118.44;1745343;82;20154;-66
2021/08/12 10:45:58;;;;;;;;;;;;;;;26.34;37.93;100120.03;1745836;82;20118;-64
2021/08/12 10:48:28;;;;;;;;;;;;;;;26.33;38.74;100113.03;1746624;82;20122;-69
2021/08/12 10:51:16;;;;;;;;;;;;;;;26.32;39.08;100118.05;1747229;82;20468;-69
2021/08/12 10:53:42;;;;;;;;;;;;;;;26.30;39.18;100120.05;1772836;81;21845;-71
2021/08/12 10:56:10;;;;;;;;;;;;;;;26.27;39.24;100111.08;1728539;82;20089;-67
2021/08/12 10:58:39;;;;;;;;;;;;;;;26.25;39.70;100117.11;1747039;82;20146;-67
2021/08/12 11:01:08;;;;;;;;;;;;;;;26.22;39.51;100123.64;1728979;82;20153;-69
2021/08/12 11:03:43;;;;;;;;;;;;;;;26.20;39.73;100121.66;1774465;80;20144;-70
2021/08/12 11:06:13;;;;;;;;;;;;;;;26.19;39.91;100120.00;1768449;80;21121;-69
2021/08/12 11:08:54;;;;;;;;;;;;;;;26.21;40.30;100119.82;1766914;80;20147;-68
2021/08/12 11:11:27;;;;;;;;;;;;;;;26.21;39.92;100127.83;1771561;79;20136;-68
2021/08/12 11:14:00;;;;;;;;;;;;;;;26.13;39.72;100130.59;1761147;78;20128;-68
2021/08/12 11:16:45;;;;;;;;;;;;;;;26.08;39.11;100135.64;1774499;78;20654;-69
2021/08/12 11:19:28;;;;;;;;;;;;;;;26.07;39.94;100137.98;1764854;80;20119;-67
2021/08/12 11:21:55;;;;;;;;;;;;;;;26.02;39.98;100134.53;1780074;78;20219;-71
2021/08/12 11:24:28;;;;;;;;;;;;;;;26.03;40.21;100137.52;1776633;80;20096;-71
2021/08/12 11:27:03;;;;;;;;;;;;;;;26.09;40.01;100136.80;1770581;78;21208;-74
2021/08/12 11:29:36;;;;;;;;;;;;;;;26.17;40.25;100140.71;1794894;78;20381;-70
2021/08/12 11:32:10;;;;;;;;;;;;;;;26.26;40.43;100142.79;1747942;80;21100;-64
2021/08/12 11:34:46;;;;;;;;;;;;;;;26.33;40.38;100142.41;1761119;80;20079;-78
2021/08/12 11:37:17;;;;;;;;;;;;;;;26.36;39.77;100150.55;1719602;82;20133;-73
2021/08/12 11:40:03;;;;;;;;;;;;;;;26.31;39.49;100154.28;1739780;81;20158;-68
2021/08/12 11:42:34;;;;;;;;;;;;;;;26.25;38.85;100151.81;1760842;80;20106;-66
2021/08/12 11:45:06;;;;;;;;;;;;;;;26.18;38.95;100158.38;1779140;80;21119;-67
2021/08/12 11:47:33;;;;;;;;;;;;;;;26.08;39.54;100158.33;1767692;80;20112;-65
2021/08/12 11:50:00;;;;;;;;;;;;;;;25.98;39.95;100162.63;1784099;79;20695;-68
2021/08/12 11:52:31;;;;;;;;;;;;;;;25.92;39.79;100162.02;1780857;79;20087;-70
2021/08/12 11:55:09;;;;;;;;;;;;;;;25.85;39.37;100157.91;1770377;79;20123;-65
2021/08/12 11:57:39;;;;;;;;;;;;;;;25.79;39.64;100165.30;1764884;79;21127;-65
2021/08/12 12:00:17;;;;;;;;;;;;;;;25.78;40.11;100170.81;1755599;79;20099;-64
2021/08/12 12:02:48;;;;;;;;;;;;;;;25.79;39.81;100168.47;1785433;79;20117;-63
2021/08/12 12:05:16;;;;;;;;;;;;;;;25.74;39.10;100155.67;1768599;79;20132;-63
2021/08/12 12:07:45;;;;;;;;;;;;;;;25.72;39.13;100155.52;1774681;79;20116;-64
2021/08/12 12:10:30;;;;;;;;;;;;;;;25.73;39.24;100162.52;1775174;79;21045;-68
2021/08/12 12:13:11;;;;;;;;;;;;;;;25.70;38.53;100159.70;1772243;79;20090;-65
2021/08/12 12:15:48;;;;;;;;;;;;;;;25.67;38.57;100167.23;1757922;79;20425;-67
2021/08/12 12:18:34;;;;;;;;;;;;;;;25.67;39.19;100152.57;1787752;79;20117;-69
2021/08/12 12:21:04;;;;;;;;;;;;;;;25.70;39.23;100157.55;1770833;79;20160;-68
2021/08/12 12:23:31;;;;;;;;;;;;;;;25.73;39.56;100166.02;1773913;79;21020;-69
2021/08/12 12:25:57;;;;;;;;;;;;;;;25.77;39.54;100170.48;1772698;78;20154;-67
2021/08/12 12:28:24;;;;;;;;;;;;;;;25.77;40.03;100175.31;1738565;80;20133;-68
2021/08/12 12:30:51;;;;;;;;;;;;;;;25.80;40.38;100158.95;1764321;80;20312;-69
2021/08/12 12:33:19;;;;;;;;;;;;;;;25.84;39.84;100167.42;1761152;79;20085;-71
2021/08/12 12:35:48;;;;;;;;;;;;;;;25.85;40.04;100167.24;1783174;79;21158;-69
2021/08/12 12:38:19;;;;;;;;;;;;;;;25.88;39.35;100174.89;1785762;79;20095;-69
2021/08/12 12:40:46;;;;;;;;;;;;;;;25.90;38.69;100179.53;1738127;80;20126;-70
2021/08/12 12:43:15;;;;;;;;;;;;;;;25.94;39.10;100174.67;1750705;80;20238;-70
2021/08/12 12:45:46;;;;;;;;;;;;;;;26.01;39.08;100176.08;1745587;80;20118;-70
2021/08/12 12:48:13;;;;;;;;;;;;;;;26.09;39.10;100169.33;1779792;78;21060;-71
2021/08/12 12:50:49;;;;;;;;;;;;;;;26.20;38.44;100171.05;1776333;78;20124;-69
2021/08/12 12:53:36;;;;;;;;;;;;;;;26.28;37.69;100183.48;1782862;78;20109;-66
2021/08/12 12:56:05;;;;;;;;;;;;;;;26.35;37.52;100179.60;1777043;78;20151;-69
2021/08/12 12:58:36;;;;;;;;;;;;;;;26.36;37.42;100166.06;1803902;78;20134;-70
2021/08/12 13:01:08;;;;;;;;;;;;;;;26.36;37.57;100167.41;1748000;80;21137;-72
2021/08/12 13:03:40;;;;;;;;;;;;;;;26.34;37.43;100172.09;1747191;80;20146;-69
2021/08/12 13:06:12;;;;;;;;;;;;;;;26.31;37.29;100168.45;1752790;80;20158;-73
2021/08/12 13:08:45;;;;;;;;;;;;;;;26.23;36.90;100171.19;1746631;80;20496;-71
2021/08/12 13:11:17;;;;;;;;;;;;;;;26.16;37.03;100163.08;1739243;81;20177;-70
2021/08/12 13:13:47;;;;;;;;;;;;;;;26.11;36.93;100167.30;1740517;80;22352;-67
2021/08/12 13:16:17;;;;;;;;;;;;;;;26.03;36.80;100175.39;1741830;80;20131;-66
2021/08/12 13:18:53;;;;;;;;;;;;;;;25.91;37.07;100162.52;1773656;80;20150;-74
2021/08/12 13:21:30;;;;;;;;;;;;;;;25.85;36.51;100163.24;1779272;80;20173;-71
2021/08/12 13:24:03;;;;;;;;;;;;;;;25.78;36.11;100162.30;1761143;80;20575;-69
2021/08/12 13:26:43;;;;;;;;;;;;;;;25.72;36.23;100168.86;1784568;80;20088;-71
2021/08/12 13:29:19;;;;;;;;;;;;;;;25.67;36.35;100176.57;1780439;80;20072;-66
2021/08/12 13:31:50;;;;;;;;;;;;;;;25.62;36.80;100167.73;1765334;80;20110;-70
2021/08/12 13:34:19;;;;;;;;;;;;;;;25.61;36.83;100168.75;1768233;78;21292;-68
2021/08/12 13:36:46;;;;;;;;;;;;;;;25.58;37.04;100173.97;1766379;80;20481;-66
2021/08/12 13:39:13;;;;;;;;;;;;;;;25.59;36.88;100182.27;1800986;78;21195;-66
2021/08/12 13:41:46;;;;;;;;;;;;;;;25.57;36.72;100178.14;1781411;79;20414;-70
2021/08/12 13:44:13;;;;;;;;;;;;;;;25.57;36.83;100179.48;1744383;82;20462;-69
2021/08/12 13:46:39;;;;;;;;;;;;;;;25.53;37.12;100184.84;1784294;79;20128;-69
2021/08/12 13:49:08;;;;;;;;;;;;;;;25.53;37.29;100186.17;1762488;79;20098;-64
2021/08/12 13:51:36;;;;;;;;;;;;;;;25.49;37.17;100181.70;1790464;79;20081;-66
2021/08/12 13:54:03;;;;;;;;;;;;;;;25.47;37.01;100185.05;1790124;79;20090;-67
2021/08/12 13:56:31;;;;;;;;;;;;;;;25.46;36.82;100186.05;1738175;81;20087;-68
2021/08/12 13:58:59;;;;;;;;;;;;;;;25.45;37.28;100194.23;1748486;81;20135;-68
2021/08/12 14:01:29;;;;;;;;;;;;;;;25.43;37.34;100190.41;1732262;80;20093;-65
